sensor_id;sensor_type;location;lat;lon;timestamp;P1;durP1;ratioP1;P2;durP2;ratioP2
31758;SDS011;36334;51.366;0.020;2022-07-29T00:00:55;7.45;;;3.25;;
31758;SDS011;36334;51.366;0.020;2022-07-29T00:03:41;6.35;;;3.10;;
31758;SDS011;36334;51.366;0.020;2022-07-29T00:06:27;8.07;;;3.05;;
31758;SDS011;36334;51.366;0.020;2022-07-29T00:09:13;6.97;;;3.72;;
31758;SDS011;36334;51.366;0.020;2022-07-29T00:12:00;5.05;;;3.47;;
31758;SDS011;36334;51.366;0.020;2022-07-29T00:14:46;10.38;;;4.00;;
31758;SDS011;36334;51.366;0.020;2022-07-29T00:17:33;4.72;;;3.17;;
31758;SDS011;36334;51.366;0.020;2022-07-29T00:20:19;10.10;;;3.30;;
31758;SDS011;36334;51.366;0.020;2022-07-29T00:23:05;9.25;;;3.15;;
31758;SDS011;36334;51.366;0.020;2022-07-29T00:25:58;9.82;;;4.55;;
31758;SDS011;36334;51.366;0.020;2022-07-29T00:28:44;5.43;;;2.95;;
31758;SDS011;36334;51.366;0.020;2022-07-29T00:31:30;5.30;;;3.22;;
31758;SDS011;36334;51.366;0.020;2022-07-29T00:34:16;5.22;;;3.08;;
31758;SDS011;36334;51.366;0.020;2022-07-29T00:37:21;4.95;;;2.95;;
31758;SDS011;36334;51.366;0.020;2022-07-29T00:40:08;9.95;;;3.67;;
31758;SDS011;36334;51.366;0.020;2022-07-29T00:42:54;10.52;;;3.70;;
31758;SDS011;36334;51.366;0.020;2022-07-29T00:45:41;7.13;;;4.28;;
31758;SDS011;36334;51.366;0.020;2022-07-29T00:48:27;8.80;;;3.20;;
31758;SDS011;36334;51.366;0.020;2022-07-29T00:51:13;8.02;;;4.05;;
31758;SDS011;36334;51.366;0.020;2022-07-29T00:53:59;8.52;;;3.95;;
31758;SDS011;36334;51.366;0.020;2022-07-29T00:56:45;7.45;;;4.22;;
31758;SDS011;36334;51.366;0.020;2022-07-29T00:59:31;7.82;;;4.90;;
31758;SDS011;36334;51.366;0.020;2022-07-29T01:02:20;10.63;;;5.80;;
31758;SDS011;36334;51.366;0.020;2022-07-29T01:05:06;10.32;;;4.72;;
31758;SDS011;36334;51.366;0.020;2022-07-29T01:07:53;8.60;;;5.35;;
31758;SDS011;36334;51.366;0.020;2022-07-29T01:10:40;9.10;;;4.18;;
31758;SDS011;36334;51.366;0.020;2022-07-29T01:13:29;6.43;;;3.17;;
31758;SDS011;36334;51.366;0.020;2022-07-29T01:16:29;9.02;;;2.67;;
31758;SDS011;36334;51.366;0.020;2022-07-29T01:19:27;8.07;;;2.60;;
31758;SDS011;36334;51.366;0.020;2022-07-29T01:25:30;6.38;;;2.53;;
31758;SDS011;36334;51.366;0.020;2022-07-29T01:31:20;5.65;;;2.97;;
31758;SDS011;36334;51.366;0.020;2022-07-29T01:34:20;7.78;;;2.80;;
31758;SDS011;36334;51.366;0.020;2022-07-29T01:37:12;8.05;;;3.08;;
31758;SDS011;36334;51.366;0.020;2022-07-29T01:40:04;5.63;;;2.88;;
31758;SDS011;36334;51.366;0.020;2022-07-29T01:42:54;6.18;;;2.70;;
31758;SDS011;36334;51.366;0.020;2022-07-29T01:45:45;5.53;;;2.40;;
31758;SDS011;36334;51.366;0.020;2022-07-29T01:49:10;8.32;;;3.35;;
31758;SDS011;36334;51.366;0.020;2022-07-29T01:51:54;4.18;;;2.70;;
31758;SDS011;36334;51.366;0.020;2022-07-29T01:54:49;5.47;;;2.78;;
31758;SDS011;36334;51.366;0.020;2022-07-29T01:57:45;5.22;;;2.40;;
31758;SDS011;36334;51.366;0.020;2022-07-29T02:00:33;9.57;;;2.97;;
31758;SDS011;36334;51.366;0.020;2022-07-29T02:03:20;4.57;;;2.63;;
31758;SDS011;36334;51.366;0.020;2022-07-29T02:06:08;6.22;;;2.83;;
31758;SDS011;36334;51.366;0.020;2022-07-29T02:08:56;5.50;;;2.83;;
31758;SDS011;36334;51.366;0.020;2022-07-29T02:11:53;5.57;;;3.00;;
31758;SDS011;36334;51.366;0.020;2022-07-29T02:14:43;4.15;;;2.50;;
31758;SDS011;36334;51.366;0.020;2022-07-29T02:17:33;4.13;;;2.65;;
31758;SDS011;36334;51.366;0.020;2022-07-29T02:20:26;6.82;;;3.13;;
31758;SDS011;36334;51.366;0.020;2022-07-29T02:23:14;6.75;;;3.42;;
31758;SDS011;36334;51.366;0.020;2022-07-29T02:26:09;6.28;;;2.90;;
31758;SDS011;36334;51.366;0.020;2022-07-29T02:28:56;9.35;;;2.80;;
31758;SDS011;36334;51.366;0.020;2022-07-29T02:31:44;6.55;;;3.03;;
31758;SDS011;36334;51.366;0.020;2022-07-29T02:34:32;6.85;;;2.88;;
31758;SDS011;36334;51.366;0.020;2022-07-29T02:37:20;7.43;;;2.70;;
31758;SDS011;36334;51.366;0.020;2022-07-29T02:40:09;7.55;;;4.50;;
31758;SDS011;36334;51.366;0.020;2022-07-29T02:42:57;5.03;;;2.92;;
31758;SDS011;36334;51.366;0.020;2022-07-29T02:45:44;6.97;;;2.80;;
31758;SDS011;36334;51.366;0.020;2022-07-29T02:48:56;3.75;;;2.75;;
31758;SDS011;36334;51.366;0.020;2022-07-29T02:51:58;6.47;;;3.30;;
31758;SDS011;36334;51.366;0.020;2022-07-29T02:57:54;5.53;;;3.05;;
31758;SDS011;36334;51.366;0.020;2022-07-29T03:00:46;4.28;;;2.53;;
31758;SDS011;36334;51.366;0.020;2022-07-29T03:03:36;8.88;;;2.88;;
31758;SDS011;36334;51.366;0.020;2022-07-29T03:06:24;7.35;;;2.90;;
31758;SDS011;36334;51.366;0.020;2022-07-29T03:09:23;5.38;;;3.15;;
31758;SDS011;36334;51.366;0.020;2022-07-29T03:12:10;9.55;;;3.00;;
31758;SDS011;36334;51.366;0.020;2022-07-29T03:14:57;3.92;;;3.05;;
31758;SDS011;36334;51.366;0.020;2022-07-29T03:17:44;5.93;;;2.78;;
31758;SDS011;36334;51.366;0.020;2022-07-29T03:20:32;4.30;;;2.90;;
31758;SDS011;36334;51.366;0.020;2022-07-29T03:23:19;6.50;;;3.33;;
31758;SDS011;36334;51.366;0.020;2022-07-29T03:26:07;5.80;;;3.42;;
31758;SDS011;36334;51.366;0.020;2022-07-29T03:28:54;6.53;;;3.70;;
31758;SDS011;36334;51.366;0.020;2022-07-29T03:31:40;7.72;;;3.58;;
31758;SDS011;36334;51.366;0.020;2022-07-29T03:34:28;5.40;;;3.58;;
31758;SDS011;36334;51.366;0.020;2022-07-29T03:37:14;7.85;;;3.97;;
31758;SDS011;36334;51.366;0.020;2022-07-29T03:40:00;6.95;;;3.97;;
31758;SDS011;36334;51.366;0.020;2022-07-29T03:42:48;7.10;;;3.17;;
31758;SDS011;36334;51.366;0.020;2022-07-29T03:45:37;11.23;;;3.20;;
31758;SDS011;36334;51.366;0.020;2022-07-29T03:48:25;5.00;;;3.03;;
31758;SDS011;36334;51.366;0.020;2022-07-29T03:51:15;10.45;;;4.47;;
31758;SDS011;36334;51.366;0.020;2022-07-29T03:54:02;9.48;;;4.70;;
31758;SDS011;36334;51.366;0.020;2022-07-29T03:56:55;7.82;;;3.08;;
31758;SDS011;36334;51.366;0.020;2022-07-29T03:59:45;6.75;;;2.92;;
31758;SDS011;36334;51.366;0.020;2022-07-29T04:02:32;6.28;;;3.13;;
31758;SDS011;36334;51.366;0.020;2022-07-29T04:05:19;4.85;;;3.53;;
31758;SDS011;36334;51.366;0.020;2022-07-29T04:08:05;8.40;;;3.20;;
31758;SDS011;36334;51.366;0.020;2022-07-29T04:10:51;7.00;;;3.30;;
31758;SDS011;36334;51.366;0.020;2022-07-29T04:13:38;5.40;;;3.35;;
31758;SDS011;36334;51.366;0.020;2022-07-29T04:16:24;6.68;;;3.55;;
31758;SDS011;36334;51.366;0.020;2022-07-29T04:19:10;6.28;;;3.75;;
31758;SDS011;36334;51.366;0.020;2022-07-29T04:21:57;8.57;;;3.40;;
31758;SDS011;36334;51.366;0.020;2022-07-29T04:24:44;7.88;;;4.03;;
31758;SDS011;36334;51.366;0.020;2022-07-29T04:27:30;5.65;;;3.58;;
31758;SDS011;36334;51.366;0.020;2022-07-29T04:30:17;9.23;;;4.60;;
31758;SDS011;36334;51.366;0.020;2022-07-29T04:33:04;9.80;;;3.75;;
31758;SDS011;36334;51.366;0.020;2022-07-29T04:35:52;4.90;;;3.47;;
31758;SDS011;36334;51.366;0.020;2022-07-29T04:38:40;7.32;;;3.38;;
31758;SDS011;36334;51.366;0.020;2022-07-29T04:41:26;5.78;;;3.67;;
31758;SDS011;36334;51.366;0.020;2022-07-29T04:44:18;6.22;;;3.20;;
31758;SDS011;36334;51.366;0.020;2022-07-29T04:47:07;5.63;;;3.60;;
31758;SDS011;36334;51.366;0.020;2022-07-29T04:49:54;6.72;;;3.15;;
31758;SDS011;36334;51.366;0.020;2022-07-29T04:52:41;5.38;;;3.40;;
31758;SDS011;36334;51.366;0.020;2022-07-29T04:55:32;6.72;;;3.63;;
31758;SDS011;36334;51.366;0.020;2022-07-29T04:58:18;4.10;;;3.22;;
31758;SDS011;36334;51.366;0.020;2022-07-29T05:01:04;9.23;;;3.95;;
31758;SDS011;36334;51.366;0.020;2022-07-29T05:03:50;8.65;;;3.85;;
31758;SDS011;36334;51.366;0.020;2022-07-29T05:06:41;7.82;;;3.80;;
31758;SDS011;36334;51.366;0.020;2022-07-29T05:09:27;7.13;;;4.30;;
31758;SDS011;36334;51.366;0.020;2022-07-29T05:12:13;6.40;;;3.30;;
31758;SDS011;36334;51.366;0.020;2022-07-29T05:14:59;7.57;;;3.72;;
31758;SDS011;36334;51.366;0.020;2022-07-29T05:17:45;10.35;;;3.50;;
31758;SDS011;36334;51.366;0.020;2022-07-29T05:20:31;11.77;;;4.00;;
31758;SDS011;36334;51.366;0.020;2022-07-29T05:23:18;6.47;;;4.03;;
31758;SDS011;36334;51.366;0.020;2022-07-29T05:26:05;8.35;;;3.90;;
31758;SDS011;36334;51.366;0.020;2022-07-29T05:28:51;9.05;;;4.28;;
31758;SDS011;36334;51.366;0.020;2022-07-29T05:31:37;7.10;;;3.90;;
31758;SDS011;36334;51.366;0.020;2022-07-29T05:34:23;7.82;;;3.35;;
31758;SDS011;36334;51.366;0.020;2022-07-29T05:37:10;9.70;;;4.03;;
31758;SDS011;36334;51.366;0.020;2022-07-29T05:39:58;8.18;;;4.35;;
31758;SDS011;36334;51.366;0.020;2022-07-29T05:42:45;6.88;;;3.58;;
31758;SDS011;36334;51.366;0.020;2022-07-29T05:45:31;6.55;;;4.10;;
31758;SDS011;36334;51.366;0.020;2022-07-29T05:48:33;10.32;;;3.60;;
31758;SDS011;36334;51.366;0.020;2022-07-29T05:51:20;6.30;;;3.30;;
31758;SDS011;36334;51.366;0.020;2022-07-29T05:54:06;7.88;;;4.10;;
31758;SDS011;36334;51.366;0.020;2022-07-29T05:56:52;10.45;;;5.00;;
31758;SDS011;36334;51.366;0.020;2022-07-29T05:59:38;8.77;;;4.60;;
31758;SDS011;36334;51.366;0.020;2022-07-29T06:02:24;8.35;;;4.65;;
31758;SDS011;36334;51.366;0.020;2022-07-29T06:05:10;14.20;;;6.00;;
31758;SDS011;36334;51.366;0.020;2022-07-29T06:08:02;8.57;;;4.63;;
31758;SDS011;36334;51.366;0.020;2022-07-29T06:10:48;8.27;;;4.80;;
31758;SDS011;36334;51.366;0.020;2022-07-29T06:13:34;9.23;;;4.95;;
31758;SDS011;36334;51.366;0.020;2022-07-29T06:16:20;8.27;;;4.07;;
31758;SDS011;36334;51.366;0.020;2022-07-29T06:19:14;11.65;;;4.25;;
31758;SDS011;36334;51.366;0.020;2022-07-29T06:22:01;8.35;;;4.18;;
31758;SDS011;36334;51.366;0.020;2022-07-29T06:24:47;10.13;;;4.07;;
31758;SDS011;36334;51.366;0.020;2022-07-29T06:27:33;8.32;;;4.32;;
31758;SDS011;36334;51.366;0.020;2022-07-29T06:30:20;8.48;;;4.95;;
31758;SDS011;36334;51.366;0.020;2022-07-29T06:33:06;7.55;;;4.35;;
31758;SDS011;36334;51.366;0.020;2022-07-29T06:35:52;7.53;;;4.25;;
31758;SDS011;36334;51.366;0.020;2022-07-29T06:38:39;11.88;;;5.60;;
31758;SDS011;36334;51.366;0.020;2022-07-29T06:41:34;7.30;;;4.70;;
31758;SDS011;36334;51.366;0.020;2022-07-29T06:44:27;8.97;;;4.00;;
31758;SDS011;36334;51.366;0.020;2022-07-29T06:47:13;7.82;;;4.05;;
31758;SDS011;36334;51.366;0.020;2022-07-29T06:49:59;11.05;;;5.47;;
31758;SDS011;36334;51.366;0.020;2022-07-29T06:52:45;10.25;;;4.38;;
31758;SDS011;36334;51.366;0.020;2022-07-29T06:55:31;9.15;;;4.80;;
31758;SDS011;36334;51.366;0.020;2022-07-29T06:58:17;12.10;;;4.50;;
31758;SDS011;36334;51.366;0.020;2022-07-29T07:01:13;10.65;;;5.93;;
31758;SDS011;36334;51.366;0.020;2022-07-29T07:03:59;10.20;;;5.13;;
31758;SDS011;36334;51.366;0.020;2022-07-29T07:06:45;9.85;;;5.38;;
31758;SDS011;36334;51.366;0.020;2022-07-29T07:09:31;9.35;;;4.43;;
31758;SDS011;36334;51.366;0.020;2022-07-29T07:12:25;7.32;;;4.53;;
31758;SDS011;36334;51.366;0.020;2022-07-29T07:15:11;15.27;;;5.20;;
31758;SDS011;36334;51.366;0.020;2022-07-29T07:17:58;11.15;;;4.53;;
31758;SDS011;36334;51.366;0.020;2022-07-29T07:20:44;12.77;;;5.35;;
31758;SDS011;36334;51.366;0.020;2022-07-29T07:23:30;11.82;;;4.70;;
31758;SDS011;36334;51.366;0.020;2022-07-29T07:26:17;10.40;;;5.35;;
31758;SDS011;36334;51.366;0.020;2022-07-29T07:29:03;7.50;;;4.68;;
31758;SDS011;36334;51.366;0.020;2022-07-29T07:31:49;8.73;;;4.78;;
31758;SDS011;36334;51.366;0.020;2022-07-29T07:34:35;12.05;;;4.40;;
31758;SDS011;36334;51.366;0.020;2022-07-29T07:37:23;9.60;;;4.47;;
31758;SDS011;36334;51.366;0.020;2022-07-29T07:40:10;12.48;;;4.68;;
31758;SDS011;36334;51.366;0.020;2022-07-29T07:43:03;15.48;;;4.45;;
31758;SDS011;36334;51.366;0.020;2022-07-29T07:45:49;11.85;;;4.72;;
31758;SDS011;36334;51.366;0.020;2022-07-29T07:48:35;14.02;;;4.30;;
31758;SDS011;36334;51.366;0.020;2022-07-29T07:51:21;13.90;;;4.82;;
31758;SDS011;36334;51.366;0.020;2022-07-29T07:54:07;8.68;;;4.28;;
31758;SDS011;36334;51.366;0.020;2022-07-29T07:56:53;10.68;;;4.90;;
31758;SDS011;36334;51.366;0.020;2022-07-29T07:59:40;9.50;;;4.28;;
31758;SDS011;36334;51.366;0.020;2022-07-29T08:02:26;9.35;;;4.35;;
31758;SDS011;36334;51.366;0.020;2022-07-29T08:05:15;10.70;;;4.80;;
31758;SDS011;36334;51.366;0.020;2022-07-29T08:08:04;7.80;;;4.75;;
31758;SDS011;36334;51.366;0.020;2022-07-29T08:10:51;11.05;;;4.97;;
31758;SDS011;36334;51.366;0.020;2022-07-29T08:13:39;8.77;;;4.28;;
31758;SDS011;36334;51.366;0.020;2022-07-29T08:16:27;7.85;;;3.78;;
31758;SDS011;36334;51.366;0.020;2022-07-29T08:19:13;10.82;;;4.32;;
31758;SDS011;36334;51.366;0.020;2022-07-29T08:22:00;5.15;;;3.58;;
31758;SDS011;36334;51.366;0.020;2022-07-29T08:24:46;6.22;;;2.90;;
31758;SDS011;36334;51.366;0.020;2022-07-29T08:27:39;8.25;;;3.10;;
31758;SDS011;36334;51.366;0.020;2022-07-29T08:30:29;6.40;;;2.97;;
31758;SDS011;36334;51.366;0.020;2022-07-29T08:33:15;6.07;;;3.70;;
31758;SDS011;36334;51.366;0.020;2022-07-29T08:36:01;7.57;;;3.58;;
31758;SDS011;36334;51.366;0.020;2022-07-29T08:38:48;5.60;;;3.15;;
31758;SDS011;36334;51.366;0.020;2022-07-29T08:41:35;10.18;;;4.03;;
31758;SDS011;36334;51.366;0.020;2022-07-29T08:44:21;7.72;;;3.65;;
31758;SDS011;36334;51.366;0.020;2022-07-29T08:47:16;8.98;;;3.45;;
31758;SDS011;36334;51.366;0.020;2022-07-29T08:50:02;5.63;;;2.60;;
31758;SDS011;36334;51.366;0.020;2022-07-29T08:52:48;8.48;;;2.47;;
31758;SDS011;36334;51.366;0.020;2022-07-29T08:55:35;8.80;;;2.90;;
31758;SDS011;36334;51.366;0.020;2022-07-29T08:58:22;5.03;;;2.10;;
31758;SDS011;36334;51.366;0.020;2022-07-29T09:01:10;4.28;;;2.20;;
31758;SDS011;36334;51.366;0.020;2022-07-29T09:04:04;3.05;;;1.90;;
31758;SDS011;36334;51.366;0.020;2022-07-29T09:06:53;6.50;;;2.33;;
31758;SDS011;36334;51.366;0.020;2022-07-29T09:09:42;4.57;;;1.92;;
31758;SDS011;36334;51.366;0.020;2022-07-29T09:12:29;5.90;;;2.17;;
31758;SDS011;36334;51.366;0.020;2022-07-29T09:15:22;5.97;;;2.25;;
31758;SDS011;36334;51.366;0.020;2022-07-29T09:18:08;6.38;;;2.40;;
31758;SDS011;36334;51.366;0.020;2022-07-29T09:21:15;5.38;;;2.20;;
31758;SDS011;36334;51.366;0.020;2022-07-29T09:24:23;8.25;;;3.08;;
31758;SDS011;36334;51.366;0.020;2022-07-29T09:27:21;5.65;;;2.30;;
31758;SDS011;36334;51.366;0.020;2022-07-29T09:30:13;5.80;;;2.03;;
31758;SDS011;36334;51.366;0.020;2022-07-29T09:33:09;5.38;;;2.10;;
31758;SDS011;36334;51.366;0.020;2022-07-29T09:36:03;6.53;;;1.95;;
31758;SDS011;36334;51.366;0.020;2022-07-29T09:38:57;4.97;;;2.05;;
31758;SDS011;36334;51.366;0.020;2022-07-29T09:41:46;4.63;;;2.42;;
31758;SDS011;36334;51.366;0.020;2022-07-29T09:44:42;7.10;;;2.60;;
31758;SDS011;36334;51.366;0.020;2022-07-29T09:50:38;4.63;;;2.20;;
31758;SDS011;36334;51.366;0.020;2022-07-29T09:53:35;6.85;;;3.22;;
31758;SDS011;36334;51.366;0.020;2022-07-29T09:56:38;7.93;;;3.08;;
31758;SDS011;36334;51.366;0.020;2022-07-29T09:59:26;4.90;;;2.80;;
31758;SDS011;36334;51.366;0.020;2022-07-29T10:02:13;5.80;;;2.70;;
31758;SDS011;36334;51.366;0.020;2022-07-29T10:08:05;7.25;;;2.35;;
31758;SDS011;36334;51.366;0.020;2022-07-29T10:11:03;10.65;;;2.60;;
31758;SDS011;36334;51.366;0.020;2022-07-29T10:13:55;14.55;;;2.95;;
31758;SDS011;36334;51.366;0.020;2022-07-29T10:16:42;5.75;;;2.50;;
31758;SDS011;36334;51.366;0.020;2022-07-29T10:19:29;5.32;;;2.45;;
31758;SDS011;36334;51.366;0.020;2022-07-29T10:22:16;4.75;;;2.75;;
31758;SDS011;36334;51.366;0.020;2022-07-29T10:25:24;7.68;;;2.90;;
31758;SDS011;36334;51.366;0.020;2022-07-29T10:28:11;8.48;;;2.70;;
31758;SDS011;36334;51.366;0.020;2022-07-29T10:31:02;11.32;;;3.00;;
31758;SDS011;36334;51.366;0.020;2022-07-29T10:37:17;8.80;;;2.90;;
31758;SDS011;36334;51.366;0.020;2022-07-29T10:40:17;5.40;;;2.00;;
31758;SDS011;36334;51.366;0.020;2022-07-29T10:43:29;6.60;;;2.38;;
31758;SDS011;36334;51.366;0.020;2022-07-29T10:46:22;5.80;;;2.45;;
31758;SDS011;36334;51.366;0.020;2022-07-29T10:49:11;4.13;;;2.72;;
31758;SDS011;36334;51.366;0.020;2022-07-29T10:52:07;5.05;;;2.55;;
31758;SDS011;36334;51.366;0.020;2022-07-29T10:54:57;8.63;;;3.30;;
31758;SDS011;36334;51.366;0.020;2022-07-29T10:58:10;5.47;;;2.63;;
31758;SDS011;36334;51.366;0.020;2022-07-29T11:01:03;8.63;;;2.90;;
31758;SDS011;36334;51.366;0.020;2022-07-29T11:07:31;10.63;;;2.85;;
31758;SDS011;36334;51.366;0.020;2022-07-29T11:10:30;4.78;;;2.58;;
31758;SDS011;36334;51.366;0.020;2022-07-29T11:17:00;6.72;;;2.10;;
31758;SDS011;36334;51.366;0.020;2022-07-29T11:23:28;5.38;;;2.00;;
31758;SDS011;36334;51.366;0.020;2022-07-29T11:26:19;6.25;;;2.03;;
31758;SDS011;36334;51.366;0.020;2022-07-29T11:32:12;6.18;;;2.03;;
31758;SDS011;36334;51.366;0.020;2022-07-29T11:35:20;7.60;;;2.92;;
31758;SDS011;36334;51.366;0.020;2022-07-29T11:38:31;3.80;;;1.95;;
31758;SDS011;36334;51.366;0.020;2022-07-29T11:44:03;4.78;;;2.00;;
31758;SDS011;36334;51.366;0.020;2022-07-29T11:46:53;7.00;;;2.10;;
31758;SDS011;36334;51.366;0.020;2022-07-29T11:49:40;3.72;;;2.13;;
31758;SDS011;36334;51.366;0.020;2022-07-29T11:52:33;3.75;;;1.95;;
31758;SDS011;36334;51.366;0.020;2022-07-29T11:55:34;5.80;;;2.10;;
31758;SDS011;36334;51.366;0.020;2022-07-29T11:58:36;5.47;;;2.30;;
31758;SDS011;36334;51.366;0.020;2022-07-29T12:01:23;6.78;;;2.58;;
31758;SDS011;36334;51.366;0.020;2022-07-29T12:04:12;6.90;;;2.33;;
31758;SDS011;36334;51.366;0.020;2022-07-29T12:06:59;5.28;;;2.42;;
31758;SDS011;36334;51.366;0.020;2022-07-29T12:09:52;7.70;;;2.50;;
31758;SDS011;36334;51.366;0.020;2022-07-29T12:12:41;6.28;;;2.22;;
31758;SDS011;36334;51.366;0.020;2022-07-29T12:15:28;6.72;;;2.50;;
31758;SDS011;36334;51.366;0.020;2022-07-29T12:18:31;7.82;;;2.00;;
31758;SDS011;36334;51.366;0.020;2022-07-29T12:21:17;5.70;;;2.38;;
31758;SDS011;36334;51.366;0.020;2022-07-29T12:24:10;3.42;;;1.98;;
31758;SDS011;36334;51.366;0.020;2022-07-29T12:26:57;3.58;;;2.03;;
31758;SDS011;36334;51.366;0.020;2022-07-29T12:29:45;5.05;;;2.03;;
31758;SDS011;36334;51.366;0.020;2022-07-29T12:33:02;4.60;;;2.17;;
31758;SDS011;36334;51.366;0.020;2022-07-29T12:35:57;5.35;;;2.55;;
31758;SDS011;36334;51.366;0.020;2022-07-29T12:39:02;9.32;;;2.60;;
31758;SDS011;36334;51.366;0.020;2022-07-29T12:41:49;5.07;;;1.98;;
31758;SDS011;36334;51.366;0.020;2022-07-29T12:44:45;8.18;;;2.05;;
31758;SDS011;36334;51.366;0.020;2022-07-29T12:47:50;3.22;;;2.20;;
31758;SDS011;36334;51.366;0.020;2022-07-29T12:50:57;5.40;;;2.05;;
31758;SDS011;36334;51.366;0.020;2022-07-29T12:56:57;3.55;;;2.15;;
31758;SDS011;36334;51.366;0.020;2022-07-29T12:59:44;5.30;;;1.95;;
31758;SDS011;36334;51.366;0.020;2022-07-29T13:02:44;4.70;;;1.92;;
31758;SDS011;36334;51.366;0.020;2022-07-29T13:05:44;6.05;;;1.83;;
31758;SDS011;36334;51.366;0.020;2022-07-29T13:08:33;5.53;;;2.50;;
31758;SDS011;36334;51.366;0.020;2022-07-29T13:11:30;4.90;;;2.35;;
31758;SDS011;36334;51.366;0.020;2022-07-29T13:14:37;6.18;;;2.03;;
31758;SDS011;36334;51.366;0.020;2022-07-29T13:17:25;4.18;;;2.17;;
31758;SDS011;36334;51.366;0.020;2022-07-29T13:20:17;7.40;;;2.22;;
31758;SDS011;36334;51.366;0.020;2022-07-29T13:23:03;5.63;;;2.55;;
31758;SDS011;36334;51.366;0.020;2022-07-29T13:25:49;6.03;;;2.33;;
31758;SDS011;36334;51.366;0.020;2022-07-29T13:28:35;7.20;;;2.08;;
31758;SDS011;36334;51.366;0.020;2022-07-29T13:31:21;5.32;;;1.90;;
31758;SDS011;36334;51.366;0.020;2022-07-29T13:34:07;5.65;;;2.22;;
31758;SDS011;36334;51.366;0.020;2022-07-29T13:36:54;4.63;;;2.40;;
31758;SDS011;36334;51.366;0.020;2022-07-29T13:39:40;4.05;;;2.00;;
31758;SDS011;36334;51.366;0.020;2022-07-29T13:42:36;6.90;;;2.25;;
31758;SDS011;36334;51.366;0.020;2022-07-29T13:45:23;5.57;;;1.70;;
31758;SDS011;36334;51.366;0.020;2022-07-29T13:48:13;4.43;;;2.00;;
31758;SDS011;36334;51.366;0.020;2022-07-29T13:50:59;4.38;;;2.38;;
31758;SDS011;36334;51.366;0.020;2022-07-29T13:53:45;5.57;;;2.10;;
31758;SDS011;36334;51.366;0.020;2022-07-29T13:56:32;8.50;;;2.15;;
31758;SDS011;36334;51.366;0.020;2022-07-29T13:59:18;3.80;;;1.90;;
31758;SDS011;36334;51.366;0.020;2022-07-29T14:02:04;4.72;;;2.15;;
31758;SDS011;36334;51.366;0.020;2022-07-29T14:04:51;5.88;;;2.35;;
31758;SDS011;36334;51.366;0.020;2022-07-29T14:07:41;3.38;;;1.50;;
31758;SDS011;36334;51.366;0.020;2022-07-29T14:10:28;11.60;;;2.50;;
31758;SDS011;36334;51.366;0.020;2022-07-29T14:13:14;6.32;;;2.47;;
31758;SDS011;36334;51.366;0.020;2022-07-29T14:16:09;4.72;;;1.95;;
31758;SDS011;36334;51.366;0.020;2022-07-29T14:18:56;3.22;;;1.95;;
31758;SDS011;36334;51.366;0.020;2022-07-29T14:21:42;3.13;;;2.13;;
31758;SDS011;36334;51.366;0.020;2022-07-29T14:24:30;4.65;;;1.90;;
31758;SDS011;36334;51.366;0.020;2022-07-29T14:27:16;5.65;;;2.40;;
31758;SDS011;36334;51.366;0.020;2022-07-29T14:30:02;6.18;;;1.90;;
31758;SDS011;36334;51.366;0.020;2022-07-29T14:32:49;3.85;;;1.90;;
31758;SDS011;36334;51.366;0.020;2022-07-29T14:35:35;4.78;;;2.38;;
31758;SDS011;36334;51.366;0.020;2022-07-29T14:38:21;4.57;;;2.00;;
31758;SDS011;36334;51.366;0.020;2022-07-29T14:41:11;2.95;;;1.67;;
31758;SDS011;36334;51.366;0.020;2022-07-29T14:43:57;5.43;;;2.40;;
31758;SDS011;36334;51.366;0.020;2022-07-29T14:46:46;5.63;;;2.20;;
31758;SDS011;36334;51.366;0.020;2022-07-29T14:49:34;2.70;;;2.08;;
31758;SDS011;36334;51.366;0.020;2022-07-29T14:52:21;3.60;;;2.03;;
31758;SDS011;36334;51.366;0.020;2022-07-29T14:55:07;4.60;;;2.08;;
31758;SDS011;36334;51.366;0.020;2022-07-29T14:58:04;6.65;;;2.03;;
31758;SDS011;36334;51.366;0.020;2022-07-29T15:03:43;3.88;;;2.08;;
31758;SDS011;36334;51.366;0.020;2022-07-29T15:06:35;6.25;;;2.20;;
31758;SDS011;36334;51.366;0.020;2022-07-29T15:09:22;5.00;;;2.35;;
31758;SDS011;36334;51.366;0.020;2022-07-29T15:12:08;5.50;;;1.85;;
31758;SDS011;36334;51.366;0.020;2022-07-29T15:14:55;5.10;;;1.95;;
31758;SDS011;36334;51.366;0.020;2022-07-29T15:17:41;5.72;;;2.00;;
31758;SDS011;36334;51.366;0.020;2022-07-29T15:20:28;5.07;;;2.00;;
31758;SDS011;36334;51.366;0.020;2022-07-29T15:23:14;4.72;;;2.17;;
31758;SDS011;36334;51.366;0.020;2022-07-29T15:26:01;3.53;;;1.83;;
31758;SDS011;36334;51.366;0.020;2022-07-29T15:28:48;2.65;;;1.80;;
31758;SDS011;36334;51.366;0.020;2022-07-29T15:31:34;3.72;;;1.92;;
31758;SDS011;36334;51.366;0.020;2022-07-29T15:34:22;3.08;;;1.60;;
31758;SDS011;36334;51.366;0.020;2022-07-29T15:37:11;2.88;;;1.85;;
31758;SDS011;36334;51.366;0.020;2022-07-29T15:39:57;4.82;;;2.08;;
31758;SDS011;36334;51.366;0.020;2022-07-29T15:42:44;5.20;;;2.22;;
31758;SDS011;36334;51.366;0.020;2022-07-29T15:45:37;6.78;;;1.70;;
31758;SDS011;36334;51.366;0.020;2022-07-29T15:48:25;2.45;;;1.73;;
31758;SDS011;36334;51.366;0.020;2022-07-29T15:51:11;6.30;;;2.10;;
31758;SDS011;36334;51.366;0.020;2022-07-29T15:53:57;6.57;;;2.45;;
31758;SDS011;36334;51.366;0.020;2022-07-29T15:56:46;7.22;;;2.70;;
31758;SDS011;36334;51.366;0.020;2022-07-29T15:59:32;4.38;;;2.55;;
31758;SDS011;36334;51.366;0.020;2022-07-29T16:02:19;4.45;;;2.60;;
31758;SDS011;36334;51.366;0.020;2022-07-29T16:05:05;7.63;;;3.42;;
31758;SDS011;36334;51.366;0.020;2022-07-29T16:07:54;4.85;;;2.42;;
31758;SDS011;36334;51.366;0.020;2022-07-29T16:10:40;5.43;;;2.08;;
31758;SDS011;36334;51.366;0.020;2022-07-29T16:13:26;2.90;;;1.80;;
31758;SDS011;36334;51.366;0.020;2022-07-29T16:16:14;3.88;;;2.15;;
31758;SDS011;36334;51.366;0.020;2022-07-29T16:19:01;3.92;;;1.98;;
31758;SDS011;36334;51.366;0.020;2022-07-29T16:21:48;6.53;;;2.38;;
31758;SDS011;36334;51.366;0.020;2022-07-29T16:24:34;6.50;;;2.47;;
31758;SDS011;36334;51.366;0.020;2022-07-29T16:27:20;6.05;;;2.50;;
31758;SDS011;36334;51.366;0.020;2022-07-29T16:30:20;6.05;;;2.22;;
31758;SDS011;36334;51.366;0.020;2022-07-29T16:33:07;3.75;;;1.90;;
31758;SDS011;36334;51.366;0.020;2022-07-29T16:35:53;4.18;;;2.38;;
31758;SDS011;36334;51.366;0.020;2022-07-29T16:38:40;6.40;;;2.97;;
31758;SDS011;36334;51.366;0.020;2022-07-29T16:41:31;5.78;;;2.55;;
31758;SDS011;36334;51.366;0.020;2022-07-29T16:44:17;5.90;;;2.50;;
31758;SDS011;36334;51.366;0.020;2022-07-29T16:47:09;5.80;;;2.00;;
31758;SDS011;36334;51.366;0.020;2022-07-29T16:49:59;2.95;;;1.95;;
31758;SDS011;36334;51.366;0.020;2022-07-29T16:53:00;5.07;;;2.22;;
31758;SDS011;36334;51.366;0.020;2022-07-29T16:55:47;8.63;;;2.75;;
31758;SDS011;36334;51.366;0.020;2022-07-29T16:58:33;5.72;;;3.33;;
31758;SDS011;36334;51.366;0.020;2022-07-29T17:01:19;5.65;;;2.83;;
31758;SDS011;36334;51.366;0.020;2022-07-29T17:04:06;4.88;;;2.70;;
31758;SDS011;36334;51.366;0.020;2022-07-29T17:06:53;7.35;;;2.10;;
31758;SDS011;36334;51.366;0.020;2022-07-29T17:09:40;7.43;;;2.22;;
31758;SDS011;36334;51.366;0.020;2022-07-29T17:12:26;6.68;;;2.15;;
31758;SDS011;36334;51.366;0.020;2022-07-29T17:15:12;5.20;;;2.28;;
31758;SDS011;36334;51.366;0.020;2022-07-29T17:18:01;7.78;;;2.72;;
31758;SDS011;36334;51.366;0.020;2022-07-29T17:20:57;7.28;;;2.10;;
31758;SDS011;36334;51.366;0.020;2022-07-29T17:23:43;6.63;;;2.20;;
31758;SDS011;36334;51.366;0.020;2022-07-29T17:26:30;4.28;;;1.95;;
31758;SDS011;36334;51.366;0.020;2022-07-29T17:29:16;6.53;;;2.20;;
31758;SDS011;36334;51.366;0.020;2022-07-29T17:32:03;6.88;;;2.15;;
31758;SDS011;36334;51.366;0.020;2022-07-29T17:34:52;5.63;;;2.25;;
31758;SDS011;36334;51.366;0.020;2022-07-29T17:37:39;4.85;;;2.00;;
31758;SDS011;36334;51.366;0.020;2022-07-29T17:40:25;4.85;;;2.35;;